Новый

Карта отелей и гостиниц, располагающихся рядом с аэропортом Новый :

Новый
Хабаровск
Хабаровский край 48° 31' 41.9988" N, 135° 11' 17.9412" E
Код аэродрома ИКАО
UHHH
Код аэродрома RU
УХХХ
Координаты
N48.52833° E135.18832°
Превышение над уровнем моря
74
Основная полоса
05R/23L
Курс магнитный
053,8/233,8
Длина основной ВПП
4000
Ширина основной ВПП
60
Покрытие основной ВПП
Твёрдое
Освещение ВПП
Постоянное
Тип: 
Аэродром
Класс аэродрома: 
Международный
Принадлежность: 
ГА
Статус: 
Действующий
Сайт: 
http://www.airkhv.ru/
Страна: 
Россия
Регион: 
Хабаровский край
Город: 
Хабаровск
Дополнительная информация: 
Военный индекс: ЬХХХ/XHHH. Оператор: ОАО «Хабаровский аэропорт». Нкр.=(600)м.
Схемы аэропортов: 
Погода: 

Авиационная погода в аэропорту Новый

Регион: 
Погода METAR: 
UHHH 170000Z VRB01MPS CAVOK 20/04 Q1001 R23R/090060 NOSIG RMK QFE745/0993
Время наблюдения
2021-05-17T00:00:00Z
Температура C
20.0
Точка росы
4.0
Направление ветра
0
Скорость ветра (узлы)
2
Метео видимость
6.21
Явления погоды
Условия полета
VFR
Аэропорт подробнее: 

Найти трансфер

С помощью этой формы Вы можете найти трансфер из аэропорта Новый в город, аэропорт или вокзал:

Карта места

Javascript is required to view this map.

Погода в аэропортах:

Авиационная погода в Куусамо

Регион: 
Погода METAR: 
EFKS 162350Z AUTO 11005KT 0700 R30/0800N FG VV002 03/03 Q1011
Время наблюдения
2021-05-16T23:50:00Z
Температура C
3.0
Точка росы
3.0
Направление ветра
110
Скорость ветра (узлы)
5
Метео видимость
0.43
Явления погоды
FG
Условия полета
LIFR

Авиационная погода в Ровно

Регион: 
Погода METAR: 
UKLR 161400Z 07005MPS 040V100 9999 TS FEW025CB SCT025 20/13 Q1006 NOSIG
Время наблюдения
2021-05-16T14:00:00Z
Температура C
20.0
Точка росы
13.0
Направление ветра
70
Скорость ветра (узлы)
10
Метео видимость
6.21
Явления погоды
TS
Условия полета
VFR
Аэропорт подробнее: 

Авиационная погода в Вардё

Регион: 
Погода METAR: 
ENSS 161750Z 13020KT 5000 -SNRA SCT007 BKN010 02/01 Q1013 RMK WIND 500FT 11021KT
Время наблюдения
2021-05-16T17:50:00Z
Температура C
2.0
Точка росы
1.0
Направление ветра
130
Скорость ветра (узлы)
20
Метео видимость
3.11
Явления погоды
-SN -RA
Условия полета
MVFR

Авиационная погода в Вадсё

Регион: 
Погода METAR: 
ENVD 161750Z 10015KT 4000 BR BKN005 02/01 Q1012
Время наблюдения
2021-05-16T17:50:00Z
Температура C
2.0
Точка росы
1.0
Направление ветра
100
Скорость ветра (узлы)
15
Метео видимость
2.49
Явления погоды
BR
Условия полета
IFR